Time;durP1;ratioP1;P1;durP2;ratioP2;P2;SDS_P1;SDS_P2;PMS_P1;PMS_P2;Temp;Humidity;BMP_temperature;BMP_pressure;BME280_temperature;BME280_humidity;BME280_pressure;Samples;Min_cycle;Max_cycle;Signal;HPM_P1;HPM_P2
2020/12/17 00:01:31;;;;;;;;;;;;;;;3.89;85.18;100426.19;4900529;29;20378;-69
2020/12/17 00:03:59;;;;;;;;;;;;;;;3.89;85.91;100423.66;4900553;29;19923;-69
2020/12/17 00:06:37;;;;;;;;;;;;;;;3.91;85.24;100424.56;4900397;29;19975;-69
2020/12/17 00:09:05;;;;;;;;;;;;;;;3.92;85.21;100433.88;4900353;29;20400;-69
2020/12/17 00:11:33;;;;;;;;;;;;;;;3.93;85.26;100425.53;4900312;29;20381;-69
2020/12/17 00:14:01;;;;;;;;;;;;;;;3.94;85.09;100414.59;4900588;29;19924;-70
2020/12/17 00:16:29;;;;;;;;;;;;;;;3.92;85.15;100421.25;4900281;29;19923;-69
2020/12/17 00:18:56;;;;;;;;;;;;;;;3.93;85.23;100425.53;4900153;29;19979;-72
2020/12/17 00:21:24;;;;;;;;;;;;;;;3.93;85.29;100424.66;4900113;29;20326;-69
2020/12/17 00:23:53;;;;;;;;;;;;;;;3.94;84.85;100417.13;4900138;29;20010;-69
2020/12/17 00:26:20;;;;;;;;;;;;;;;3.94;84.94;100422.16;4899970;29;19924;-69
2020/12/17 00:28:48;;;;;;;;;;;;;;;3.96;85.26;100422.22;4900029;29;19930;-70
2020/12/17 00:33:58;;;;;;;;;;;;;;;3.95;84.96;100411.28;4860855;29;19961;-69
2020/12/17 00:36:25;;;;;;;;;;;;;;;3.95;84.82;100416.34;4860832;29;19963;-69
2020/12/17 00:38:54;;;;;;;;;;;;;;;3.95;84.57;100421.38;4860620;29;19928;-69
2020/12/17 00:41:22;;;;;;;;;;;;;;;3.94;84.58;100417.13;4860594;29;19924;-70
2020/12/17 00:43:52;;;;;;;;;;;;;;;3.96;85.05;100422.22;4860531;29;19924;-69
2020/12/17 00:46:20;;;;;;;;;;;;;;;3.97;84.94;100414.72;4860351;29;19931;-69
2020/12/17 00:48:50;;;;;;;;;;;;;;;4.00;84.89;100419.03;4860468;29;19924;-69
2020/12/17 00:51:18;;;;;;;;;;;;;;;3.97;84.37;100417.25;4860468;29;19924;-69
2020/12/17 00:53:45;;;;;;;;;;;;;;;3.96;84.28;100428.13;4860356;29;19924;-69
2020/12/17 00:56:13;;;;;;;;;;;;;;;3.98;84.30;100431.56;4860265;29;19931;-70
2020/12/17 00:58:41;;;;;;;;;;;;;;;3.98;84.24;100421.47;4860582;29;19924;-70
2020/12/17 01:01:08;;;;;;;;;;;;;;;3.99;84.15;100423.22;4860241;29;19931;-70
2020/12/17 01:03:36;;;;;;;;;;;;;;;3.96;84.47;100425.59;4860183;29;19924;-69
2020/12/17 01:06:04;;;;;;;;;;;;;;;3.97;84.15;100417.25;4860278;29;20374;-69
2020/12/17 01:08:32;;;;;;;;;;;;;;;3.96;84.50;100418.03;4860181;29;19924;-70
2020/12/17 01:10:59;;;;;;;;;;;;;;;3.98;84.25;100416.41;4876688;29;20362;-69
2020/12/17 01:13:28;;;;;;;;;;;;;;;3.98;84.64;100424.00;4899524;29;19923;-69
2020/12/17 01:15:55;;;;;;;;;;;;;;;3.99;84.50;100418.16;4899275;29;20017;-70
2020/12/17 01:18:23;;;;;;;;;;;;;;;4.00;83.78;100411.44;4899182;29;20026;-69
2020/12/17 01:20:50;;;;;;;;;;;;;;;3.99;83.94;100412.25;4899061;29;19923;-70
2020/12/17 01:23:18;;;;;;;;;;;;;;;3.96;83.08;100402.88;4899445;29;19923;-69
2020/12/17 01:25:49;;;;;;;;;;;;;;;3.98;83.46;100408.00;4899133;29;19924;-69
2020/12/17 01:28:16;;;;;;;;;;;;;;;4.00;82.81;100409.78;4899037;29;19927;-69
2020/12/17 01:30:45;;;;;;;;;;;;;;;4.00;82.98;100409.78;4899300;29;20279;-69
2020/12/17 01:33:12;;;;;;;;;;;;;;;4.02;82.80;100408.19;4898152;29;19974;-71
2020/12/17 01:35:40;;;;;;;;;;;;;;;3.99;82.96;100413.09;4899257;29;20315;-69
2020/12/17 01:38:07;;;;;;;;;;;;;;;4.00;82.93;100413.97;4899110;29;20319;-69
2020/12/17 01:40:35;;;;;;;;;;;;;;;3.97;83.00;100417.25;4898944;29;19923;-69
2020/12/17 01:43:02;;;;;;;;;;;;;;;3.95;82.64;100411.28;4898862;29;19923;-69
2020/12/17 01:45:29;;;;;;;;;;;;;;;3.95;82.98;100420.50;4898887;29;19924;-70
2020/12/17 01:47:58;;;;;;;;;;;;;;;3.96;82.33;100412.13;4898831;29;19955;-69
2020/12/17 01:50:25;;;;;;;;;;;;;;;3.95;82.95;100421.38;4898809;29;19975;-69
2020/12/17 01:52:53;;;;;;;;;;;;;;;3.95;83.08;100421.38;4898826;29;19931;-69
2020/12/17 01:55:23;;;;;;;;;;;;;;;3.99;83.15;100418.16;4898855;29;19932;-69
2020/12/17 01:57:50;;;;;;;;;;;;;;;4.00;82.69;100424.94;4899029;29;20326;-69
2020/12/17 02:00:17;;;;;;;;;;;;;;;3.98;82.87;100421.47;4899075;29;20289;-69
2020/12/17 02:02:51;;;;;;;;;;;;;;;3.98;83.07;100420.63;4898682;29;19924;-70
2020/12/17 02:05:20;;;;;;;;;;;;;;;3.99;82.94;100428.25;4899068;29;19930;-69
2020/12/17 02:07:48;;;;;;;;;;;;;;;4.00;83.15;100430.00;4898887;29;19931;-69
2020/12/17 02:10:15;;;;;;;;;;;;;;;4.02;82.63;100427.50;4898675;29;19927;-69
2020/12/17 02:12:45;;;;;;;;;;;;;;;4.02;83.62;100433.44;4898651;29;19923;-69
2020/12/17 02:15:12;;;;;;;;;;;;;;;4.00;83.76;100429.13;4898690;29;20026;-69
2020/12/17 02:17:40;;;;;;;;;;;;;;;3.98;83.32;100431.56;4898900;29;19923;-69
2020/12/17 02:20:08;;;;;;;;;;;;;;;4.01;83.75;100435.88;4898473;29;20421;-69
2020/12/17 02:22:38;;;;;;;;;;;;;;;4.01;83.23;100434.22;4901131;29;19923;-69
2020/12/17 02:25:08;;;;;;;;;;;;;;;4.01;83.52;100436.75;4902220;29;19931;-70
2020/12/17 02:27:35;;;;;;;;;;;;;;;4.02;83.42;100432.56;4902477;29;19924;-69
2020/12/17 02:30:02;;;;;;;;;;;;;;;4.02;83.73;100437.63;4902372;29;20263;-69
2020/12/17 02:32:33;;;;;;;;;;;;;;;4.02;83.64;100430.91;4902162;29;20439;-70
2020/12/17 02:35:00;;;;;;;;;;;;;;;4.03;83.04;100434.28;4902071;29;19923;-70
2020/12/17 02:37:28;;;;;;;;;;;;;;;4.01;83.40;100436.75;4901997;29;19923;-71
2020/12/17 02:39:56;;;;;;;;;;;;;;;4.04;83.37;100436.88;4901977;29;19971;-69
2020/12/17 02:42:24;;;;;;;;;;;;;;;4.05;83.27;100438.56;4902223;29;20018;-69
2020/12/17 02:44:52;;;;;;;;;;;;;;;4.03;83.39;100437.66;4901183;29;20022;-69
2020/12/17 02:47:19;;;;;;;;;;;;;;;4.05;82.90;100441.09;4901760;29;19978;-69
2020/12/17 02:49:47;;;;;;;;;;;;;;;4.04;82.68;100446.97;4901842;29;20006;-69
2020/12/17 02:52:14;;;;;;;;;;;;;;;4.05;82.86;100451.19;4900658;29;19927;-70
2020/12/17 02:54:42;;;;;;;;;;;;;;;4.04;82.82;100452.03;4900463;29;19927;-69
2020/12/17 02:57:09;;;;;;;;;;;;;;;4.04;82.58;100443.56;4902277;29;19983;-69
2020/12/17 02:59:37;;;;;;;;;;;;;;;4.04;83.04;100441.91;4901636;29;19924;-69
2020/12/17 03:02:05;;;;;;;;;;;;;;;4.04;83.06;100436.88;4901399;29;20396;-69
2020/12/17 03:04:33;;;;;;;;;;;;;;;4.02;82.76;100440.13;4901520;29;19958;-69
2020/12/17 03:07:00;;;;;;;;;;;;;;;4.00;82.87;100437.56;4901735;29;19972;-69
2020/12/17 03:09:27;;;;;;;;;;;;;;;4.04;82.58;100436.00;4901424;29;19930;-69
2020/12/17 03:11:55;;;;;;;;;;;;;;;4.03;83.08;100429.25;4901282;29;19924;-69
2020/12/17 03:14:22;;;;;;;;;;;;;;;4.00;83.10;100432.53;4901417;29;19930;-69
2020/12/17 03:16:51;;;;;;;;;;;;;;;4.01;83.13;100431.69;4900186;29;19931;-70
2020/12/17 03:19:19;;;;;;;;;;;;;;;4.01;82.96;100429.16;4901576;29;19930;-70
2020/12/17 03:21:50;;;;;;;;;;;;;;;4.00;82.77;100424.94;4901396;29;20330;-69
2020/12/17 03:24:19;;;;;;;;;;;;;;;4.03;83.23;100429.25;4901286;29;19924;-70
2020/12/17 03:26:47;;;;;;;;;;;;;;;4.05;82.69;100438.56;4901119;29;19930;-69
2020/12/17 03:29:15;;;;;;;;;;;;;;;4.03;82.78;100430.09;4901077;29;19930;-69
2020/12/17 03:31:43;;;;;;;;;;;;;;;4.02;82.56;100427.50;4901132;29;19927;-70
2020/12/17 03:34:13;;;;;;;;;;;;;;;4.05;82.52;100436.03;4900300;29;19923;-69
2020/12/17 03:36:41;;;;;;;;;;;;;;;4.06;82.76;100425.16;4901265;29;20353;-69
2020/12/17 03:39:08;;;;;;;;;;;;;;;4.04;82.68;100429.28;4901004;29;19930;-70
2020/12/17 03:41:35;;;;;;;;;;;;;;;4.04;82.70;100431.81;4900786;29;19924;-70
2020/12/17 03:44:03;;;;;;;;;;;;;;;4.08;83.26;100437.81;4900902;29;20002;-69
2020/12/17 03:46:30;;;;;;;;;;;;;;;4.05;83.17;100432.69;4900748;29;19930;-69
2020/12/17 03:48:57;;;;;;;;;;;;;;;4.04;83.07;100434.34;4900807;29;19927;-69
2020/12/17 03:51:26;;;;;;;;;;;;;;;4.03;83.37;100431.78;4901044;29;19930;-70
2020/12/17 03:53:53;;;;;;;;;;;;;;;4.02;83.23;100433.44;4900961;29;20085;-69
2020/12/17 03:56:20;;;;;;;;;;;;;;;4.04;82.65;100436.88;4900568;29;20327;-69
2020/12/17 03:58:48;;;;;;;;;;;;;;;3.99;83.13;100423.22;4900579;29;19963;-69
2020/12/17 04:01:16;;;;;;;;;;;;;;;4.00;83.27;100422.41;4900574;29;19923;-70
2020/12/17 04:03:43;;;;;;;;;;;;;;;4.00;82.74;100430.00;4900594;29;20030;-70
2020/12/17 04:06:10;;;;;;;;;;;;;;;4.01;82.93;100429.16;4900606;29;19931;-70
2020/12/17 04:08:59;;;;;;;;;;;;;;;4.03;83.14;100429.25;4900504;29;19924;-71
2020/12/17 04:11:26;;;;;;;;;;;;;;;4.02;82.85;100425.84;4900249;29;19930;-69
2020/12/17 04:13:53;;;;;;;;;;;;;;;4.00;83.00;100427.47;4900321;29;19923;-71
2020/12/17 04:16:33;;;;;;;;;;;;;;;4.02;83.10;100423.31;5112004;27;19916;-71
2020/12/17 04:19:01;;;;;;;;;;;;;;;4.00;83.44;100419.91;5111865;28;19955;-71
2020/12/17 04:21:28;;;;;;;;;;;;;;;4.01;83.27;100416.53;5110930;28;19924;-72
2020/12/17 04:23:55;;;;;;;;;;;;;;;4.02;83.00;100418.28;5111693;28;19955;-71
2020/12/17 04:26:23;;;;;;;;;;;;;;;4.03;83.15;100419.97;5111777;28;20007;-71
2020/12/17 04:28:51;;;;;;;;;;;;;;;3.99;83.55;100422.34;5111695;28;19931;-70
2020/12/17 04:31:18;;;;;;;;;;;;;;;3.96;83.42;100423.09;5110767;28;19924;-70
2020/12/17 04:33:48;;;;;;;;;;;;;;;3.98;83.55;100421.47;5111641;28;20285;-71
2020/12/17 04:36:15;;;;;;;;;;;;;;;4.00;83.55;100419.91;5111316;28;19973;-70
2020/12/17 04:38:43;;;;;;;;;;;;;;;3.97;83.77;100419.78;5111542;28;19924;-70
2020/12/17 04:41:10;;;;;;;;;;;;;;;3.92;84.21;100420.41;5111377;28;19924;-72
2020/12/17 04:43:37;;;;;;;;;;;;;;;3.90;83.72;100417.81;5111489;28;19931;-70
2020/12/17 04:46:05;;;;;;;;;;;;;;;3.90;84.36;100416.94;5111236;28;19928;-70
2020/12/17 04:48:32;;;;;;;;;;;;;;;3.91;84.21;100418.69;5111358;28;19924;-70
2020/12/17 04:51:00;;;;;;;;;;;;;;;3.91;84.68;100422.06;5111579;28;20006;-71
2020/12/17 04:53:29;;;;;;;;;;;;;;;3.94;84.70;100419.66;5111184;28;20010;-71
2020/12/17 04:55:56;;;;;;;;;;;;;;;3.98;84.64;100426.53;5111078;28;19973;-70
2020/12/17 04:58:24;;;;;;;;;;;;;;;3.97;84.20;100429.00;5111045;28;20015;-71
2020/12/17 05:00:54;;;;;;;;;;;;;;;3.94;84.07;100437.31;5111141;28;19931;-70
2020/12/17 05:03:22;;;;;;;;;;;;;;;3.86;84.48;100431.13;5111027;28;19927;-71
2020/12/17 05:05:51;;;;;;;;;;;;;;;3.88;84.40;100429.53;5111574;28;19924;-71
2020/12/17 05:08:22;;;;;;;;;;;;;;;3.87;84.97;100431.97;5111419;28;19924;-70
2020/12/17 05:10:49;;;;;;;;;;;;;;;3.84;85.10;100429.38;5110848;28;19924;-70
2020/12/17 05:13:17;;;;;;;;;;;;;;;3.85;84.48;100424.34;5110860;28;19949;-72
2020/12/17 05:15:44;;;;;;;;;;;;;;;3.86;84.89;100437.84;5110576;28;20404;-72
2020/12/17 05:18:12;;;;;;;;;;;;;;;3.84;85.33;100437.78;5110661;28;19946;-70
2020/12/17 05:20:39;;;;;;;;;;;;;;;3.82;85.37;100439.38;5110782;28;19931;-70
2020/12/17 05:23:06;;;;;;;;;;;;;;;3.83;85.01;100436.06;5110961;28;20014;-70
2020/12/17 05:25:36;;;;;;;;;;;;;;;3.87;85.05;100437.91;5110636;28;19928;-72
2020/12/17 05:28:05;;;;;;;;;;;;;;;3.87;85.06;100437.91;5096568;28;19951;-69
2020/12/17 05:30:33;;;;;;;;;;;;;;;3.87;84.99;100437.91;5096899;28;19938;-72
2020/12/17 05:33:00;;;;;;;;;;;;;;;3.85;85.55;100436.13;5096969;28;19924;-70
2020/12/17 05:35:30;;;;;;;;;;;;;;;3.88;85.11;100434.59;5096789;28;19924;-70
2020/12/17 05:37:59;;;;;;;;;;;;;;;3.88;85.64;100441.28;5096870;28;19932;-71
2020/12/17 05:40:27;;;;;;;;;;;;;;;3.89;85.24;100448.91;5096847;28;19947;-71
2020/12/17 05:42:55;;;;;;;;;;;;;;;3.84;85.22;100445.34;5097015;28;19924;-70
2020/12/17 05:45:22;;;;;;;;;;;;;;;3.84;85.82;100441.97;5096727;28;20324;-71
2020/12/17 05:48:05;;;;;;;;;;;;;;;3.86;85.75;100441.22;5096635;28;20049;-70
2020/12/17 05:50:33;;;;;;;;;;;;;;;3.92;85.45;100443.97;5096652;28;20012;-72
2020/12/17 05:53:01;;;;;;;;;;;;;;;3.95;85.71;100440.72;5096581;28;19924;-69
2020/12/17 05:55:28;;;;;;;;;;;;;;;3.95;85.46;100439.06;5096408;28;19959;-70
2020/12/17 05:57:56;;;;;;;;;;;;;;;3.94;85.66;100447.41;5096414;28;19928;-70
2020/12/17 06:00:24;;;;;;;;;;;;;;;3.94;84.93;100444.91;5096396;28;19931;-70
2020/12/17 06:02:51;;;;;;;;;;;;;;;3.95;85.38;100446.63;5096282;28;19924;-69
2020/12/17 06:05:21;;;;;;;;;;;;;;;3.96;85.46;100443.28;5095384;28;20012;-72
2020/12/17 06:07:50;;;;;;;;;;;;;;;3.98;84.91;100444.19;5096564;28;20346;-69
2020/12/17 06:10:24;;;;;;;;;;;;;;;3.98;84.76;100441.69;5096215;28;20031;-71
2020/12/17 06:12:51;;;;;;;;;;;;;;;3.99;84.75;100443.41;5096166;28;20378;-69
2020/12/17 06:15:21;;;;;;;;;;;;;;;3.97;84.54;100445.03;5095922;28;19982;-71
2020/12/17 06:17:49;;;;;;;;;;;;;;;3.98;84.64;100446.72;5096117;28;19924;-69
2020/12/17 06:20:17;;;;;;;;;;;;;;;3.99;84.70;100447.59;5095908;28;19924;-70
2020/12/17 06:22:50;;;;;;;;;;;;;;;4.01;84.92;100456.06;5095992;28;19925;-69
2020/12/17 06:25:18;;;;;;;;;;;;;;;3.98;84.52;100451.78;5094635;28;20432;-71
2020/12/17 06:27:46;;;;;;;;;;;;;;;3.99;84.53;100455.16;5096161;28;20035;-69
2020/12/17 06:30:15;;;;;;;;;;;;;;;3.97;85.19;100455.13;5095775;28;19963;-69
2020/12/17 06:32:43;;;;;;;;;;;;;;;3.99;84.58;100461.09;5095717;28;20018;-69
2020/12/17 06:35:14;;;;;;;;;;;;;;;4.00;85.23;100460.28;5095607;28;19973;-70
2020/12/17 06:37:43;;;;;;;;;;;;;;;4.00;84.82;100460.28;5095058;28;19947;-72
2020/12/17 06:40:10;;;;;;;;;;;;;;;4.00;84.45;100467.88;5095474;28;19928;-70
2020/12/17 06:42:37;;;;;;;;;;;;;;;4.00;84.52;100470.41;5095570;28;19924;-69
2020/12/17 06:45:06;;;;;;;;;;;;;;;3.99;84.88;100468.66;5095875;28;19927;-71
2020/12/17 06:47:35;;;;;;;;;;;;;;;4.02;84.37;100483.94;5095509;28;19928;-70
2020/12/17 06:50:05;;;;;;;;;;;;;;;4.00;84.61;100480.50;5095463;28;19924;-70
2020/12/17 06:52:35;;;;;;;;;;;;;;;4.03;84.26;100479.75;5095406;28;19959;-72
2020/12/17 06:55:02;;;;;;;;;;;;;;;3.99;84.19;100482.94;5095175;28;20010;-69
2020/12/17 06:57:32;;;;;;;;;;;;;;;3.98;84.23;100487.13;5095345;28;19924;-69
2020/12/17 07:00:04;;;;;;;;;;;;;;;3.99;84.43;100491.38;5095574;28;19985;-70
2020/12/17 07:02:39;;;;;;;;;;;;;;;4.00;83.87;100495.66;5095300;28;20010;-70
2020/12/17 07:05:06;;;;;;;;;;;;;;;4.02;83.86;100491.50;5095177;28;19924;-70
2020/12/17 07:07:37;;;;;;;;;;;;;;;4.01;84.00;100494.81;5094991;28;19931;-69
2020/12/17 07:10:06;;;;;;;;;;;;;;;4.01;84.34;100491.44;5095222;28;19928;-69
2020/12/17 07:12:36;;;;;;;;;;;;;;;4.00;84.64;100495.66;5094672;28;19924;-71
2020/12/17 07:15:04;;;;;;;;;;;;;;;4.00;83.97;100485.53;5094864;28;19924;-71
2020/12/17 07:17:31;;;;;;;;;;;;;;;4.02;84.37;100499.09;5094812;28;19928;-70
2020/12/17 07:20:00;;;;;;;;;;;;;;;4.04;84.09;100497.47;5094874;28;19993;-72
2020/12/17 07:22:28;;;;;;;;;;;;;;;4.02;83.74;100496.56;5094679;28;19963;-71
2020/12/17 07:24:57;;;;;;;;;;;;;;;4.05;84.02;100498.34;5093622;28;19924;-71
2020/12/17 07:27:24;;;;;;;;;;;;;;;4.06;83.60;100500.91;5094713;28;19928;-69
2020/12/17 07:29:53;;;;;;;;;;;;;;;4.06;83.63;100502.56;5094714;28;20339;-69
2020/12/17 07:32:21;;;;;;;;;;;;;;;3.99;83.90;100493.91;5094800;28;19931;-70
2020/12/17 07:34:56;;;;;;;;;;;;;;;4.03;83.87;100500.78;5094550;28;20404;-70
2020/12/17 07:37:26;;;;;;;;;;;;;;;4.07;83.76;100507.72;5094595;28;19924;-69
2020/12/17 07:39:54;;;;;;;;;;;;;;;4.05;83.78;100504.22;5094930;28;19924;-70
2020/12/17 07:42:22;;;;;;;;;;;;;;;4.04;83.88;100507.59;5094478;28;19924;-69
2020/12/17 07:44:49;;;;;;;;;;;;;;;4.04;84.52;100507.59;5094536;28;20019;-69
2020/12/17 07:47:18;;;;;;;;;;;;;;;4.06;83.75;100510.16;5094455;28;19924;-70
2020/12/17 07:49:45;;;;;;;;;;;;;;;4.13;83.74;100511.28;5094362;28;19928;-69
2020/12/17 07:52:27;;;;;;;;;;;;;;;4.11;83.68;100503.63;5094379;28;19968;-71
2020/12/17 07:54:55;;;;;;;;;;;;;;;4.07;83.50;100510.22;5094281;28;19928;-70
2020/12/17 07:57:23;;;;;;;;;;;;;;;4.05;84.14;100504.22;5094271;28;19928;-70
2020/12/17 08:00:05;;;;;;;;;;;;;;;4.05;83.89;100509.28;5094322;28;19959;-69
2020/12/17 08:02:35;;;;;;;;;;;;;;;4.11;84.20;100497.69;5052002;28;19956;-71
2020/12/17 08:05:03;;;;;;;;;;;;;;;4.12;84.00;100509.53;5052139;28;19963;-69
2020/12/17 08:07:30;;;;;;;;;;;;;;;4.13;84.44;100506.22;5051888;28;19925;-69
2020/12/17 08:09:58;;;;;;;;;;;;;;;4.14;84.00;100512.97;5030002;28;19968;-70
2020/12/17 08:12:27;;;;;;;;;;;;;;;4.08;84.76;100514.47;5031831;28;19925;-69
2020/12/17 08:15:06;;;;;;;;;;;;;;;4.11;84.11;100512.84;5031583;28;19932;-72
2020/12/17 08:17:34;;;;;;;;;;;;;;;4.13;84.32;100518.84;5031905;28;19932;-72
2020/12/17 08:20:01;;;;;;;;;;;;;;;4.15;84.47;100519.75;5031816;28;19925;-70
2020/12/17 08:22:29;;;;;;;;;;;;;;;4.16;84.24;100508.84;5031803;28;19925;-70
2020/12/17 08:24:57;;;;;;;;;;;;;;;4.17;84.33;100518.16;5031741;28;20387;-70
2020/12/17 08:27:24;;;;;;;;;;;;;;;4.18;84.13;100514.81;5031100;28;19925;-70
2020/12/17 08:29:52;;;;;;;;;;;;;;;4.20;84.03;100516.59;5031790;28;19925;-70
2020/12/17 08:32:20;;;;;;;;;;;;;;;4.21;84.15;100519.97;5031652;28;19925;-70
2020/12/17 08:34:50;;;;;;;;;;;;;;;4.21;83.96;100522.50;5015458;28;20344;-72
2020/12/17 08:37:17;;;;;;;;;;;;;;;4.19;83.86;100526.66;5031799;28;20368;-70
2020/12/17 08:39:45;;;;;;;;;;;;;;;4.20;84.04;100529.22;5062482;28;20043;-72
2020/12/17 08:42:13;;;;;;;;;;;;;;;4.18;84.19;100530.84;5093648;28;19924;-71
2020/12/17 08:44:40;;;;;;;;;;;;;;;4.20;84.02;100534.28;5093324;28;20019;-70
2020/12/17 08:47:08;;;;;;;;;;;;;;;4.22;84.05;100539.41;5093973;28;20014;-71
2020/12/17 08:49:36;;;;;;;;;;;;;;;4.25;84.47;100537.84;5088591;28;19924;-72
2020/12/17 08:52:04;;;;;;;;;;;;;;;4.28;84.17;100542.16;5079757;28;19924;-70
2020/12/17 08:54:32;;;;;;;;;;;;;;;4.28;83.92;100542.16;5085125;28;19962;-71
2020/12/17 08:57:00;;;;;;;;;;;;;;;4.30;84.42;100551.50;5090979;28;20382;-70
2020/12/17 08:59:27;;;;;;;;;;;;;;;4.31;84.25;100550.72;5092433;28;19924;-72
2020/12/17 09:01:56;;;;;;;;;;;;;;;4.32;84.35;100554.13;5093880;28;19924;-70
2020/12/17 09:04:25;;;;;;;;;;;;;;;4.31;84.33;100542.28;5082595;28;20452;-70
2020/12/17 09:06:53;;;;;;;;;;;;;;;4.32;83.79;100544.84;5085502;28;19928;-70
2020/12/17 09:09:25;;;;;;;;;;;;;;;4.34;84.27;100542.41;5084659;28;20046;-70
2020/12/17 09:12:08;;;;;;;;;;;;;;;4.36;84.19;100539.13;5092277;28;19966;-69
2020/12/17 09:14:36;;;;;;;;;;;;;;;4.39;84.01;100540.91;5091497;28;19928;-70
2020/12/17 09:17:06;;;;;;;;;;;;;;;4.42;84.18;100541.88;5090956;28;20023;-71
2020/12/17 09:19:34;;;;;;;;;;;;;;;4.42;84.24;100541.88;5088665;28;19978;-70
2020/12/17 09:22:02;;;;;;;;;;;;;;;4.44;83.85;100544.47;5081704;28;19924;-70
2020/12/17 09:24:29;;;;;;;;;;;;;;;4.43;83.61;100551.19;5078992;28;20385;-71
2020/12/17 09:27:20;;;;;;;;;;;;;;;4.42;83.91;100551.97;5079604;28;19932;-71
2020/12/17 09:30:05;;;;;;;;;;;;;;;4.42;84.13;100546.91;5082437;28;19924;-72
2020/12/17 09:32:32;;;;;;;;;;;;;;;4.45;83.74;100546.19;5080690;27;20030;-72
2020/12/17 09:37:56;;;;;;;;;;;;;;;4.47;84.13;100542.03;5054474;28;20016;-71
2020/12/17 09:40:23;;;;;;;;;;;;;;;4.47;83.46;100542.03;5049560;28;20414;-70
2020/12/17 09:43:01;;;;;;;;;;;;;;;4.45;84.01;100536.06;5038527;28;19932;-70
2020/12/17 09:45:32;;;;;;;;;;;;;;;4.47;83.60;100542.03;5046155;28;19932;-71
2020/12/17 09:47:59;;;;;;;;;;;;;;;4.49;83.59;100548.88;5054122;28;19925;-70
2020/12/17 09:50:27;;;;;;;;;;;;;;;4.53;83.69;100550.72;5054028;28;19960;-70
2020/12/17 09:52:55;;;;;;;;;;;;;;;4.54;83.92;100544.84;5053795;28;20028;-70
2020/12/17 09:55:22;;;;;;;;;;;;;;;4.54;83.62;100546.50;5054256;28;20410;-70
2020/12/17 09:57:50;;;;;;;;;;;;;;;4.52;83.98;100543.06;5054102;28;19925;-71
2020/12/17 10:00:17;;;;;;;;;;;;;;;4.51;83.47;100542.19;5054077;28;19925;-70
2020/12/17 10:02:45;;;;;;;;;;;;;;;4.57;83.58;100546.63;5054068;28;20030;-71
2020/12/17 10:05:13;;;;;;;;;;;;;;;4.59;83.10;100545.00;5054001;28;20383;-70
2020/12/17 10:07:46;;;;;;;;;;;;;;;4.54;83.26;100541.47;5053994;28;19971;-70
2020/12/17 10:10:15;;;;;;;;;;;;;;;4.58;83.16;100540.78;5053954;28;20020;-70
2020/12/17 10:12:47;;;;;;;;;;;;;;;4.57;82.67;100544.09;5053887;28;19924;-70
2020/12/17 10:15:14;;;;;;;;;;;;;;;4.56;82.90;100545.75;5067041;28;20357;-70
2020/12/17 10:17:42;;;;;;;;;;;;;;;4.55;82.74;100549.13;5075842;28;19977;-70
2020/12/17 10:20:10;;;;;;;;;;;;;;;4.56;82.67;100549.94;5075805;28;19924;-70
2020/12/17 10:22:44;;;;;;;;;;;;;;;4.56;82.93;100544.91;5075813;28;20409;-70
2020/12/17 10:25:12;;;;;;;;;;;;;;;4.54;82.60;100546.50;5075724;28;19931;-70
2020/12/17 10:27:40;;;;;;;;;;;;;;;4.54;82.50;100549.91;5075664;28;19931;-71
2020/12/17 10:30:07;;;;;;;;;;;;;;;4.55;82.59;100548.25;5075608;28;20404;-70
2020/12/17 10:32:37;;;;;;;;;;;;;;;4.56;82.58;100542.38;5075789;28;19948;-70
2020/12/17 10:35:05;;;;;;;;;;;;;;;4.56;82.38;100543.22;5075464;28;19924;-70
2020/12/17 10:37:32;;;;;;;;;;;;;;;4.56;82.26;100544.91;5075388;28;19931;-70
2020/12/17 10:40:00;;;;;;;;;;;;;;;4.58;82.57;100535.72;5075445;28;20398;-71
2020/12/17 10:42:27;;;;;;;;;;;;;;;4.61;82.51;100540.88;5075236;28;19978;-70
2020/12/17 10:44:56;;;;;;;;;;;;;;;4.61;82.78;100538.34;5075349;28;19924;-70
2020/12/17 10:47:24;;;;;;;;;;;;;;;4.64;82.47;100548.56;5075207;28;19925;-71
2020/12/17 10:49:51;;;;;;;;;;;;;;;4.65;82.42;100545.25;5075216;28;19947;-70
2020/12/17 10:52:22;;;;;;;;;;;;;;;4.67;82.68;100548.69;5075188;28;19924;-71
2020/12/17 10:54:50;;;;;;;;;;;;;;;4.67;82.68;100551.22;5075126;28;19924;-70
2020/12/17 10:57:18;;;;;;;;;;;;;;;4.69;82.89;100552.13;5074971;28;19971;-70
2020/12/17 10:59:46;;;;;;;;;;;;;;;4.68;82.92;100550.41;5074958;28;19971;-70
2020/12/17 11:02:14;;;;;;;;;;;;;;;4.64;82.95;100548.56;5074957;28;19924;-70
2020/12/17 11:04:42;;;;;;;;;;;;;;;4.63;83.02;100552.75;5074920;28;19924;-70
2020/12/17 11:07:10;;;;;;;;;;;;;;;4.66;82.75;100546.97;5074867;28;19924;-70
2020/12/17 11:09:38;;;;;;;;;;;;;;;4.67;82.77;100543.63;5074794;28;19956;-70
2020/12/17 11:12:05;;;;;;;;;;;;;;;4.68;82.80;100545.34;5074767;28;19935;-70
2020/12/17 11:14:32;;;;;;;;;;;;;;;4.70;83.04;100543.75;5074538;28;19925;-70
2020/12/17 11:17:03;;;;;;;;;;;;;;;4.71;83.50;100553.06;5074649;28;19924;-71
2020/12/17 11:19:32;;;;;;;;;;;;;;;4.65;82.83;100555.38;5074611;28;19932;-70
2020/12/17 11:22:00;;;;;;;;;;;;;;;4.61;82.87;100549.31;5074624;28;19969;-70
2020/12/17 11:24:30;;;;;;;;;;;;;;;4.63;82.96;100551.94;5073972;28;20298;-72
2020/12/17 11:26:57;;;;;;;;;;;;;;;4.62;82.81;100545.13;5074504;28;19924;-70
2020/12/17 11:29:25;;;;;;;;;;;;;;;4.63;82.69;100549.41;5074685;28;19983;-70
2020/12/17 11:31:53;;;;;;;;;;;;;;;4.61;83.15;100539.22;5073468;28;19929;-70
2020/12/17 11:34:21;;;;;;;;;;;;;;;4.63;83.62;100536.75;5074388;28;20019;-70
2020/12/17 11:36:49;;;;;;;;;;;;;;;4.63;83.66;100532.53;5074231;28;19931;-71
2020/12/17 11:39:17;;;;;;;;;;;;;;;4.64;83.40;100528.34;5074573;28;19924;-71
2020/12/17 11:41:47;;;;;;;;;;;;;;;4.67;83.06;100533.53;5074257;28;20281;-70
2020/12/17 11:44:14;;;;;;;;;;;;;;;4.64;83.35;100528.34;5074228;28;19925;-70
2020/12/17 11:46:41;;;;;;;;;;;;;;;4.64;83.28;100518.25;5074240;28;19925;-70
2020/12/17 11:49:09;;;;;;;;;;;;;;;4.63;82.98;100526.66;5074440;28;19924;-70
2020/12/17 11:51:37;;;;;;;;;;;;;;;4.65;83.36;100520.81;5074226;28;20334;-72
2020/12/17 11:54:05;;;;;;;;;;;;;;;4.61;83.13;100523.19;5074143;28;19924;-70
2020/12/17 11:56:33;;;;;;;;;;;;;;;4.63;83.40;100522.44;5073998;28;19925;-72
2020/12/17 11:59:00;;;;;;;;;;;;;;;4.60;83.18;100526.53;5074094;28;20332;-71
2020/12/17 12:01:28;;;;;;;;;;;;;;;4.59;83.65;100524.78;5072859;28;19924;-72
2020/12/17 12:03:56;;;;;;;;;;;;;;;4.57;83.90;100526.41;5074026;28;19935;-72
2020/12/17 12:06:23;;;;;;;;;;;;;;;4.52;84.19;100532.97;5074033;28;20425;-72
2020/12/17 12:08:50;;;;;;;;;;;;;;;4.53;84.81;100534.69;5073970;28;19924;-72
2020/12/17 12:11:19;;;;;;;;;;;;;;;4.53;85.05;100530.50;5073986;28;20378;-70
2020/12/17 12:13:52;;;;;;;;;;;;;;;4.49;84.81;100527.78;5073991;28;19931;-70
2020/12/17 12:16:19;;;;;;;;;;;;;;;4.42;84.93;100526.72;5073679;28;19931;-72
2020/12/17 12:18:48;;;;;;;;;;;;;;;4.41;86.00;100519.94;5073831;28;19932;-70
2020/12/17 12:21:16;;;;;;;;;;;;;;;4.40;85.43;100524.91;5073974;28;20341;-72
2020/12/17 12:23:44;;;;;;;;;;;;;;;4.42;85.33;100530.88;5073884;28;19931;-71
2020/12/17 12:26:14;;;;;;;;;;;;;;;4.38;85.82;100529.94;5073787;28;19932;-72
2020/12/17 12:28:44;;;;;;;;;;;;;;;4.42;85.96;100525.84;5073848;28;19925;-70
2020/12/17 12:31:13;;;;;;;;;;;;;;;4.39;85.88;100525.75;5073805;28;19925;-70
2020/12/17 12:33:41;;;;;;;;;;;;;;;4.39;85.61;100524.06;5073700;28;20011;-70
2020/12/17 12:36:09;;;;;;;;;;;;;;;4.37;85.84;100532.38;5073861;28;20016;-72
2020/12/17 12:38:36;;;;;;;;;;;;;;;4.34;85.70;100532.28;5077757;28;19936;-72
2020/12/17 12:41:04;;;;;;;;;;;;;;;4.32;85.95;100534.75;5077613;28;19924;-72
2020/12/17 12:43:31;;;;;;;;;;;;;;;4.33;86.37;100535.59;5077699;28;19924;-70
2020/12/17 12:45:59;;;;;;;;;;;;;;;4.31;85.98;100537.22;5076570;28;19970;-71
2020/12/17 12:48:27;;;;;;;;;;;;;;;4.35;86.43;100531.47;5076404;28;20437;-71
2020/12/17 12:50:54;;;;;;;;;;;;;;;4.38;86.56;100539.16;5077488;28;19932;-70
2020/12/17 12:53:22;;;;;;;;;;;;;;;4.35;86.31;100534.84;5077739;28;19928;-70
2020/12/17 12:55:49;;;;;;;;;;;;;;;4.36;86.42;100538.25;5077349;28;19924;-70
2020/12/17 12:58:17;;;;;;;;;;;;;;;4.36;86.37;100535.72;5077242;28;19931;-70
2020/12/17 13:00:45;;;;;;;;;;;;;;;4.34;86.38;100538.22;5077539;28;20381;-71